首页
METAR-TAF:

METAR-TAF

机场 :

马丁斯堡, 西維吉尼亞州, 美国

纬度: 39-24-07N, 经度: 077-59-04W, 海拔: 170米

当前天气观测

该预报发布于15分钟前的16:10 UTC
风速4节,风向北转东北
温度 0°C
湿度 93%
气压 1025 hPa
能見度: 4.0公里
少量云层高于400英尺
阴天层高于1200英尺
未知, 轻雾

METAR: KMRB 131610Z 02004KT 2 1/2SM UP BR FEW004 OVC012 00/M01 A3028 RMK AO2 P0001 T00001011

时间: 11:25 (16:25 UTC)

预报

该预报发布于24分钟前的16:01 UTC
预报有效从13日的 16点(UTC)到 14日的 12点(UTC)
风速4节,风向
能見度: 3.2公里
阴天层高于1000英尺
(小) 冻, 雨
从 13日的 1800点(UTC)
风速节,风向
能見度: 6.4公里
阴天层高于300英尺
小雨
从 14日的 0400点(UTC)
风速3节,风向多变
能見度: 4.8公里
阴天层高于300英尺

TAF: KMRB 131601Z 1316/1412 35004KT 2SM -FZRA OVC010 FM131800 00000KT 4SM -RA OVC003 FM140400 VRB03KT 3SM RA OVC003 WS020/10030KT

超过4000个机场的气象观测和天气预报(METAR&TAF报告)。

可查询的气象台以黄色和红色小点在地图上表示。

将鼠标移到小点上方,可查看气象台名称。

然后点击查看天气观测和预报。

如需切换地图:点击带黑十字的绿色按钮放大地图;点击带横线的绿色按钮缩小地图;或者点击绿色箭头查看邻近地区的地图。


METAR-TAF: